sensor_id;sensor_type;location;lat;lon;timestamp;temperature;humidity
47521;DHT22;32291;52.010;4.446;2023-11-21T00:00:43;7.10;99.90
47521;DHT22;32291;52.010;4.446;2023-11-21T00:01:49;7.10;99.90
47521;DHT22;32291;52.010;4.446;2023-11-21T00:02:56;7.10;99.90
47521;DHT22;32291;52.010;4.446;2023-11-21T00:03:59;7.20;99.90
47521;DHT22;32291;52.010;4.446;2023-11-21T00:05:10;7.30;99.90
47521;DHT22;32291;52.010;4.446;2023-11-21T00:06:20;7.20;99.90
47521;DHT22;32291;52.010;4.446;2023-11-21T00:07:22;7.20;99.90
47521;DHT22;32291;52.010;4.446;2023-11-21T00:08:29;7.30;99.90
47521;DHT22;32291;52.010;4.446;2023-11-21T00:09:32;7.30;99.90
47521;DHT22;32291;52.010;4.446;2023-11-21T00:10:39;7.30;99.90
47521;DHT22;32291;52.010;4.446;2023-11-21T00:11:46;7.30;99.90
47521;DHT22;32291;52.010;4.446;2023-11-21T00:12:53;7.40;99.90
47521;DHT22;32291;52.010;4.446;2023-11-21T00:13:56;7.30;99.90
47521;DHT22;32291;52.010;4.446;2023-11-21T00:15:04;7.30;99.90
47521;DHT22;32291;52.010;4.446;2023-11-21T00:16:12;7.30;99.90
47521;DHT22;32291;52.010;4.446;2023-11-21T00:17:19;7.30;99.90
47521;DHT22;32291;52.010;4.446;2023-11-21T00:18:26;7.30;99.90
47521;DHT22;32291;52.010;4.446;2023-11-21T00:19:28;7.30;99.90
47521;DHT22;32291;52.010;4.446;2023-11-21T00:20:35;7.40;99.90
47521;DHT22;32291;52.010;4.446;2023-11-21T00:21:42;7.40;99.90
47521;DHT22;32291;52.010;4.446;2023-11-21T00:22:47;7.30;99.90
47521;DHT22;32291;52.010;4.446;2023-11-21T00:23:54;7.40;99.90
47521;DHT22;32291;52.010;4.446;2023-11-21T00:25:01;7.40;99.90
47521;DHT22;32291;52.010;4.446;2023-11-21T00:26:10;7.40;99.90
47521;DHT22;32291;52.010;4.446;2023-11-21T00:27:16;7.40;99.90
47521;DHT22;32291;52.010;4.446;2023-11-21T00:28:18;7.40;99.90
47521;DHT22;32291;52.010;4.446;2023-11-21T00:29:25;7.50;99.90
47521;DHT22;32291;52.010;4.446;2023-11-21T00:30:28;7.50;99.90
47521;DHT22;32291;52.010;4.446;2023-11-21T00:31:35;7.50;99.90
47521;DHT22;32291;52.010;4.446;2023-11-21T00:32:45;7.50;99.90
47521;DHT22;32291;52.010;4.446;2023-11-21T00:33:52;7.50;99.90
47521;DHT22;32291;52.010;4.446;2023-11-21T00:35:00;7.60;99.90
47521;DHT22;32291;52.010;4.446;2023-11-21T00:36:08;7.50;99.90
47521;DHT22;32291;52.010;4.446;2023-11-21T00:37:15;7.60;99.90
47521;DHT22;32291;52.010;4.446;2023-11-21T00:38:22;7.60;99.90
47521;DHT22;32291;52.010;4.446;2023-11-21T00:39:29;7.60;99.90
47521;DHT22;32291;52.010;4.446;2023-11-21T00:40:32;7.70;99.90
47521;DHT22;32291;52.010;4.446;2023-11-21T00:41:38;7.70;99.90
47521;DHT22;32291;52.010;4.446;2023-11-21T00:42:41;7.70;99.90
47521;DHT22;32291;52.010;4.446;2023-11-21T00:43:43;7.70;99.90
47521;DHT22;32291;52.010;4.446;2023-11-21T00:44:50;7.80;99.90
47521;DHT22;32291;52.010;4.446;2023-11-21T00:45:57;7.80;99.90
47521;DHT22;32291;52.010;4.446;2023-11-21T00:46:59;7.80;99.90
47521;DHT22;32291;52.010;4.446;2023-11-21T00:48:02;7.90;99.90
47521;DHT22;32291;52.010;4.446;2023-11-21T00:49:06;7.90;99.90
47521;DHT22;32291;52.010;4.446;2023-11-21T00:50:14;7.90;99.90
47521;DHT22;32291;52.010;4.446;2023-11-21T00:51:22;7.90;99.90
47521;DHT22;32291;52.010;4.446;2023-11-21T00:52:29;7.90;99.90
47521;DHT22;32291;52.010;4.446;2023-11-21T00:53:35;7.90;99.90
47521;DHT22;32291;52.010;4.446;2023-11-21T00:54:42;7.90;99.90
47521;DHT22;32291;52.010;4.446;2023-11-21T00:55:49;8.00;99.90
47521;DHT22;32291;52.010;4.446;2023-11-21T00:56:56;8.00;99.90
47521;DHT22;32291;52.010;4.446;2023-11-21T00:58:02;8.00;99.90
47521;DHT22;32291;52.010;4.446;2023-11-21T00:59:10;8.00;99.90
47521;DHT22;32291;52.010;4.446;2023-11-21T01:00:17;8.00;99.90
47521;DHT22;32291;52.010;4.446;2023-11-21T01:01:24;8.10;99.90
47521;DHT22;32291;52.010;4.446;2023-11-21T01:02:31;8.20;99.90
47521;DHT22;32291;52.010;4.446;2023-11-21T01:03:38;8.10;99.90
47521;DHT22;32291;52.010;4.446;2023-11-21T01:04:44;8.30;99.90
47521;DHT22;32291;52.010;4.446;2023-11-21T01:05:51;8.20;99.90
47521;DHT22;32291;52.010;4.446;2023-11-21T01:06:58;8.30;99.90
47521;DHT22;32291;52.010;4.446;2023-11-21T01:08:05;8.20;99.90
47521;DHT22;32291;52.010;4.446;2023-11-21T01:09:12;8.20;99.90
47521;DHT22;32291;52.010;4.446;2023-11-21T01:10:19;8.30;99.90
47521;DHT22;32291;52.010;4.446;2023-11-21T01:11:25;8.30;99.90
47521;DHT22;32291;52.010;4.446;2023-11-21T01:12:34;8.30;99.90
47521;DHT22;32291;52.010;4.446;2023-11-21T01:13:42;8.20;99.90
47521;DHT22;32291;52.010;4.446;2023-11-21T01:14:49;8.30;99.90
47521;DHT22;32291;52.010;4.446;2023-11-21T01:15:57;8.30;99.90
47521;DHT22;32291;52.010;4.446;2023-11-21T01:17:04;8.30;99.90
47521;DHT22;32291;52.010;4.446;2023-11-21T01:18:11;8.30;99.90
47521;DHT22;32291;52.010;4.446;2023-11-21T01:19:13;8.40;99.90
47521;DHT22;32291;52.010;4.446;2023-11-21T01:20:20;8.40;99.90
47521;DHT22;32291;52.010;4.446;2023-11-21T01:21:27;8.40;99.90
47521;DHT22;32291;52.010;4.446;2023-11-21T01:22:34;8.40;99.90
47521;DHT22;32291;52.010;4.446;2023-11-21T01:23:41;8.50;99.90
47521;DHT22;32291;52.010;4.446;2023-11-21T01:24:48;8.40;99.90
47521;DHT22;32291;52.010;4.446;2023-11-21T01:25:56;8.40;99.90
47521;DHT22;32291;52.010;4.446;2023-11-21T01:27:03;8.40;99.90
47521;DHT22;32291;52.010;4.446;2023-11-21T01:28:10;8.40;99.90
47521;DHT22;32291;52.010;4.446;2023-11-21T01:29:13;8.40;99.90
47521;DHT22;32291;52.010;4.446;2023-11-21T01:30:19;8.40;99.90
47521;DHT22;32291;52.010;4.446;2023-11-21T01:31:22;8.40;99.90
47521;DHT22;32291;52.010;4.446;2023-11-21T01:32:23;8.40;99.90
47521;DHT22;32291;52.010;4.446;2023-11-21T01:33:25;8.40;99.90
47521;DHT22;32291;52.010;4.446;2023-11-21T01:34:27;8.50;99.90
47521;DHT22;32291;52.010;4.446;2023-11-21T01:35:30;8.40;99.90
47521;DHT22;32291;52.010;4.446;2023-11-21T01:36:36;8.40;99.90
47521;DHT22;32291;52.010;4.446;2023-11-21T01:37:43;8.40;99.90
47521;DHT22;32291;52.010;4.446;2023-11-21T01:38:50;8.40;99.90
47521;DHT22;32291;52.010;4.446;2023-11-21T01:39:57;8.40;99.90
47521;DHT22;32291;52.010;4.446;2023-11-21T01:41:05;8.40;99.90
47521;DHT22;32291;52.010;4.446;2023-11-21T01:42:12;8.30;99.90
47521;DHT22;32291;52.010;4.446;2023-11-21T01:43:15;8.40;99.90
47521;DHT22;32291;52.010;4.446;2023-11-21T01:44:23;8.40;99.90
47521;DHT22;32291;52.010;4.446;2023-11-21T01:45:30;8.40;99.90
47521;DHT22;32291;52.010;4.446;2023-11-21T01:46:40;8.40;99.90
47521;DHT22;32291;52.010;4.446;2023-11-21T01:47:44;8.40;99.90
47521;DHT22;32291;52.010;4.446;2023-11-21T01:48:48;8.40;99.90
47521;DHT22;32291;52.010;4.446;2023-11-21T01:49:55;8.50;99.90
47521;DHT22;32291;52.010;4.446;2023-11-21T01:50:58;8.40;99.90
47521;DHT22;32291;52.010;4.446;2023-11-21T01:52:06;8.40;99.90
47521;DHT22;32291;52.010;4.446;2023-11-21T01:53:13;8.40;99.90
47521;DHT22;32291;52.010;4.446;2023-11-21T01:54:20;8.40;99.90
47521;DHT22;32291;52.010;4.446;2023-11-21T01:55:28;8.40;99.90
47521;DHT22;32291;52.010;4.446;2023-11-21T01:56:36;8.40;99.90
47521;DHT22;32291;52.010;4.446;2023-11-21T01:57:43;8.50;99.90
47521;DHT22;32291;52.010;4.446;2023-11-21T01:58:46;8.40;99.90
47521;DHT22;32291;52.010;4.446;2023-11-21T01:59:49;8.40;99.90
47521;DHT22;32291;52.010;4.446;2023-11-21T02:00:56;8.40;99.90
47521;DHT22;32291;52.010;4.446;2023-11-21T02:02:07;8.40;99.90
47521;DHT22;32291;52.010;4.446;2023-11-21T02:03:15;8.40;99.90
47521;DHT22;32291;52.010;4.446;2023-11-21T02:04:18;8.40;99.90
47521;DHT22;32291;52.010;4.446;2023-11-21T02:05:25;8.40;99.90
47521;DHT22;32291;52.010;4.446;2023-11-21T02:06:32;8.50;99.90
47521;DHT22;32291;52.010;4.446;2023-11-21T02:07:41;8.40;99.90
47521;DHT22;32291;52.010;4.446;2023-11-21T02:08:51;8.40;99.90
47521;DHT22;32291;52.010;4.446;2023-11-21T02:09:53;8.40;99.90
47521;DHT22;32291;52.010;4.446;2023-11-21T02:10:55;8.50;99.90
47521;DHT22;32291;52.010;4.446;2023-11-21T02:11:57;8.50;99.90
47521;DHT22;32291;52.010;4.446;2023-11-21T02:13:07;8.50;99.90
47521;DHT22;32291;52.010;4.446;2023-11-21T02:14:13;8.50;99.90
47521;DHT22;32291;52.010;4.446;2023-11-21T02:15:21;8.40;99.90
47521;DHT22;32291;52.010;4.446;2023-11-21T02:16:29;8.50;99.90
47521;DHT22;32291;52.010;4.446;2023-11-21T02:17:33;8.50;99.90
47521;DHT22;32291;52.010;4.446;2023-11-21T02:18:40;8.50;99.90
47521;DHT22;32291;52.010;4.446;2023-11-21T02:19:42;8.50;99.90
47521;DHT22;32291;52.010;4.446;2023-11-21T02:20:48;8.50;99.90
47521;DHT22;32291;52.010;4.446;2023-11-21T02:21:52;8.50;99.90
47521;DHT22;32291;52.010;4.446;2023-11-21T02:22:55;8.50;99.90
47521;DHT22;32291;52.010;4.446;2023-11-21T02:24:01;8.60;99.90
47521;DHT22;32291;52.010;4.446;2023-11-21T02:25:04;8.50;99.90
47521;DHT22;32291;52.010;4.446;2023-11-21T02:26:11;8.60;99.90
47521;DHT22;32291;52.010;4.446;2023-11-21T02:27:18;8.50;99.90
47521;DHT22;32291;52.010;4.446;2023-11-21T02:28:28;8.50;99.90
47521;DHT22;32291;52.010;4.446;2023-11-21T02:29:35;8.60;99.90
47521;DHT22;32291;52.010;4.446;2023-11-21T02:30:42;8.50;99.90
47521;DHT22;32291;52.010;4.446;2023-11-21T02:31:52;8.50;99.90
47521;DHT22;32291;52.010;4.446;2023-11-21T02:33:01;8.50;99.90
47521;DHT22;32291;52.010;4.446;2023-11-21T02:34:08;8.50;99.90
47521;DHT22;32291;52.010;4.446;2023-11-21T02:35:15;8.50;99.90
47521;DHT22;32291;52.010;4.446;2023-11-21T02:36:22;8.50;99.90
47521;DHT22;32291;52.010;4.446;2023-11-21T02:37:29;8.50;99.90
47521;DHT22;32291;52.010;4.446;2023-11-21T02:38:36;8.40;99.90
47521;DHT22;32291;52.010;4.446;2023-11-21T02:39:38;8.50;99.90
47521;DHT22;32291;52.010;4.446;2023-11-21T02:40:41;8.50;99.90
47521;DHT22;32291;52.010;4.446;2023-11-21T02:41:44;8.40;99.90
47521;DHT22;32291;52.010;4.446;2023-11-21T02:42:51;8.50;99.90
47521;DHT22;32291;52.010;4.446;2023-11-21T02:43:59;8.50;99.90
47521;DHT22;32291;52.010;4.446;2023-11-21T02:45:07;8.50;99.90
47521;DHT22;32291;52.010;4.446;2023-11-21T02:46:14;8.50;99.90
47521;DHT22;32291;52.010;4.446;2023-11-21T02:47:16;8.50;99.90
47521;DHT22;32291;52.010;4.446;2023-11-21T02:48:23;8.50;99.90
47521;DHT22;32291;52.010;4.446;2023-11-21T02:49:32;8.50;99.90
47521;DHT22;32291;52.010;4.446;2023-11-21T02:50:41;8.50;99.90
47521;DHT22;32291;52.010;4.446;2023-11-21T02:51:49;8.60;99.90
47521;DHT22;32291;52.010;4.446;2023-11-21T02:52:56;8.60;99.90
47521;DHT22;32291;52.010;4.446;2023-11-21T02:54:06;8.50;99.90
47521;DHT22;32291;52.010;4.446;2023-11-21T02:55:14;8.50;99.90
47521;DHT22;32291;52.010;4.446;2023-11-21T02:56:21;8.50;99.90
47521;DHT22;32291;52.010;4.446;2023-11-21T02:57:28;8.60;99.90
47521;DHT22;32291;52.010;4.446;2023-11-21T02:58:31;8.60;99.90
47521;DHT22;32291;52.010;4.446;2023-11-21T02:59:37;8.60;99.90
47521;DHT22;32291;52.010;4.446;2023-11-21T03:00:44;8.50;99.90
47521;DHT22;32291;52.010;4.446;2023-11-21T03:01:51;8.60;99.90
47521;DHT22;32291;52.010;4.446;2023-11-21T03:02:58;8.60;99.90
47521;DHT22;32291;52.010;4.446;2023-11-21T03:04:05;8.60;99.90
47521;DHT22;32291;52.010;4.446;2023-11-21T03:05:11;8.60;99.90
47521;DHT22;32291;52.010;4.446;2023-11-21T03:06:19;8.70;99.90
47521;DHT22;32291;52.010;4.446;2023-11-21T03:07:26;8.60;99.90
47521;DHT22;32291;52.010;4.446;2023-11-21T03:08:33;8.60;99.90
47521;DHT22;32291;52.010;4.446;2023-11-21T03:09:39;8.60;99.90
47521;DHT22;32291;52.010;4.446;2023-11-21T03:10:41;8.60;99.90
47521;DHT22;32291;52.010;4.446;2023-11-21T03:11:43;8.70;99.90
47521;DHT22;32291;52.010;4.446;2023-11-21T03:12:50;8.70;99.90
47521;DHT22;32291;52.010;4.446;2023-11-21T03:13:57;8.70;99.90
47521;DHT22;32291;52.010;4.446;2023-11-21T03:15:06;8.70;99.90
47521;DHT22;32291;52.010;4.446;2023-11-21T03:16:09;8.70;99.90
47521;DHT22;32291;52.010;4.446;2023-11-21T03:17:12;8.70;99.90
47521;DHT22;32291;52.010;4.446;2023-11-21T03:18:21;8.70;99.90
47521;DHT22;32291;52.010;4.446;2023-11-21T03:19:31;8.70;99.90
47521;DHT22;32291;52.010;4.446;2023-11-21T03:20:38;8.80;99.90
47521;DHT22;32291;52.010;4.446;2023-11-21T03:21:44;8.70;99.90
47521;DHT22;32291;52.010;4.446;2023-11-21T03:22:47;8.80;99.90
47521;DHT22;32291;52.010;4.446;2023-11-21T03:23:53;8.80;99.90
47521;DHT22;32291;52.010;4.446;2023-11-21T03:25:01;8.80;99.90
47521;DHT22;32291;52.010;4.446;2023-11-21T03:26:03;8.80;99.90
47521;DHT22;32291;52.010;4.446;2023-11-21T03:27:05;8.80;99.90
47521;DHT22;32291;52.010;4.446;2023-11-21T03:28:12;8.80;99.90
47521;DHT22;32291;52.010;4.446;2023-11-21T03:29:20;8.80;99.90
47521;DHT22;32291;52.010;4.446;2023-11-21T03:30:26;8.80;99.90
47521;DHT22;32291;52.010;4.446;2023-11-21T03:31:28;8.90;99.90
47521;DHT22;32291;52.010;4.446;2023-11-21T03:32:35;8.80;99.90
47521;DHT22;32291;52.010;4.446;2023-11-21T03:33:42;8.80;99.90
47521;DHT22;32291;52.010;4.446;2023-11-21T03:34:57;8.90;99.90
47521;DHT22;32291;52.010;4.446;2023-11-21T03:36:04;9.00;99.90
47521;DHT22;32291;52.010;4.446;2023-11-21T03:37:11;8.90;99.90
47521;DHT22;32291;52.010;4.446;2023-11-21T03:38:13;8.90;99.90
47521;DHT22;32291;52.010;4.446;2023-11-21T03:39:20;9.00;99.90
47521;DHT22;32291;52.010;4.446;2023-11-21T03:40:28;9.00;99.90
47521;DHT22;32291;52.010;4.446;2023-11-21T03:41:35;9.00;99.90
47521;DHT22;32291;52.010;4.446;2023-11-21T03:42:42;9.00;99.90
47521;DHT22;32291;52.010;4.446;2023-11-21T03:43:48;9.00;99.90
47521;DHT22;32291;52.010;4.446;2023-11-21T03:44:56;9.00;99.90
47521;DHT22;32291;52.010;4.446;2023-11-21T03:46:03;9.00;99.90
47521;DHT22;32291;52.010;4.446;2023-11-21T03:47:11;9.00;99.90
47521;DHT22;32291;52.010;4.446;2023-11-21T03:48:13;9.00;99.90
47521;DHT22;32291;52.010;4.446;2023-11-21T03:49:20;9.00;99.90
47521;DHT22;32291;52.010;4.446;2023-11-21T03:50:22;9.00;99.90
47521;DHT22;32291;52.010;4.446;2023-11-21T03:51:24;9.00;99.90
47521;DHT22;32291;52.010;4.446;2023-11-21T03:52:30;9.00;99.90
47521;DHT22;32291;52.010;4.446;2023-11-21T03:53:37;9.00;99.90
47521;DHT22;32291;52.010;4.446;2023-11-21T03:54:39;9.10;99.90
47521;DHT22;32291;52.010;4.446;2023-11-21T03:55:41;9.00;99.90
47521;DHT22;32291;52.010;4.446;2023-11-21T03:56:49;9.00;99.90
47521;DHT22;32291;52.010;4.446;2023-11-21T03:57:55;9.00;99.90
47521;DHT22;32291;52.010;4.446;2023-11-21T03:59:03;8.90;99.90
47521;DHT22;32291;52.010;4.446;2023-11-21T04:00:10;9.00;99.90
47521;DHT22;32291;52.010;4.446;2023-11-21T04:01:24;9.00;99.90
47521;DHT22;32291;52.010;4.446;2023-11-21T04:02:26;9.00;99.90
47521;DHT22;32291;52.010;4.446;2023-11-21T04:03:34;9.00;99.90
47521;DHT22;32291;52.010;4.446;2023-11-21T04:04:42;9.00;99.90
47521;DHT22;32291;52.010;4.446;2023-11-21T04:05:49;9.00;99.90
47521;DHT22;32291;52.010;4.446;2023-11-21T04:06:51;9.10;99.90
47521;DHT22;32291;52.010;4.446;2023-11-21T04:08:01;9.00;99.90
47521;DHT22;32291;52.010;4.446;2023-11-21T04:09:03;9.10;99.90
47521;DHT22;32291;52.010;4.446;2023-11-21T04:10:10;9.10;99.90
47521;DHT22;32291;52.010;4.446;2023-11-21T04:11:19;9.00;99.90
47521;DHT22;32291;52.010;4.446;2023-11-21T04:12:26;9.10;99.90
47521;DHT22;32291;52.010;4.446;2023-11-21T04:13:28;9.10;99.90
47521;DHT22;32291;52.010;4.446;2023-11-21T04:14:35;9.10;99.90
47521;DHT22;32291;52.010;4.446;2023-11-21T04:15:42;9.10;99.90
47521;DHT22;32291;52.010;4.446;2023-11-21T04:16:49;9.10;99.90
47521;DHT22;32291;52.010;4.446;2023-11-21T04:17:55;9.10;99.90
47521;DHT22;32291;52.010;4.446;2023-11-21T04:19:03;9.20;99.90
47521;DHT22;32291;52.010;4.446;2023-11-21T04:20:10;9.20;99.90
47521;DHT22;32291;52.010;4.446;2023-11-21T04:21:12;9.20;99.90
47521;DHT22;32291;52.010;4.446;2023-11-21T04:22:15;9.20;99.90
47521;DHT22;32291;52.010;4.446;2023-11-21T04:23:17;9.20;99.90
47521;DHT22;32291;52.010;4.446;2023-11-21T04:24:23;9.20;99.90
47521;DHT22;32291;52.010;4.446;2023-11-21T04:25:30;9.30;99.90
47521;DHT22;32291;52.010;4.446;2023-11-21T04:26:37;9.20;99.90
47521;DHT22;32291;52.010;4.446;2023-11-21T04:27:45;9.30;99.90
47521;DHT22;32291;52.010;4.446;2023-11-21T04:28:52;9.30;99.90
47521;DHT22;32291;52.010;4.446;2023-11-21T04:29:58;9.20;99.90
47521;DHT22;32291;52.010;4.446;2023-11-21T04:31:05;9.20;99.90
47521;DHT22;32291;52.010;4.446;2023-11-21T04:32:13;9.20;99.90
47521;DHT22;32291;52.010;4.446;2023-11-21T04:33:20;9.10;99.90
47521;DHT22;32291;52.010;4.446;2023-11-21T04:34:23;9.20;99.90
47521;DHT22;32291;52.010;4.446;2023-11-21T04:35:29;9.20;99.90
47521;DHT22;32291;52.010;4.446;2023-11-21T04:36:32;9.20;99.90
47521;DHT22;32291;52.010;4.446;2023-11-21T04:37:38;9.10;99.90
47521;DHT22;32291;52.010;4.446;2023-11-21T04:38:41;9.10;99.90
47521;DHT22;32291;52.010;4.446;2023-11-21T04:39:43;9.20;99.90
47521;DHT22;32291;52.010;4.446;2023-11-21T04:40:45;9.20;99.90
47521;DHT22;32291;52.010;4.446;2023-11-21T04:41:52;9.10;99.90
47521;DHT22;32291;52.010;4.446;2023-11-21T04:42:59;9.30;99.90
47521;DHT22;32291;52.010;4.446;2023-11-21T04:44:01;9.20;99.90
47521;DHT22;32291;52.010;4.446;2023-11-21T04:45:04;9.20;99.90
47521;DHT22;32291;52.010;4.446;2023-11-21T04:46:15;9.20;99.90
47521;DHT22;32291;52.010;4.446;2023-11-21T04:47:22;9.20;99.90
47521;DHT22;32291;52.010;4.446;2023-11-21T04:48:29;9.30;99.90
47521;DHT22;32291;52.010;4.446;2023-11-21T04:49:36;9.20;99.90
47521;DHT22;32291;52.010;4.446;2023-11-21T04:50:42;9.20;99.90
47521;DHT22;32291;52.010;4.446;2023-11-21T04:51:44;9.20;99.90
47521;DHT22;32291;52.010;4.446;2023-11-21T04:52:51;9.30;99.90
47521;DHT22;32291;52.010;4.446;2023-11-21T04:53:58;9.20;99.90
47521;DHT22;32291;52.010;4.446;2023-11-21T04:55:05;9.20;99.90
47521;DHT22;32291;52.010;4.446;2023-11-21T04:56:16;9.20;99.90
47521;DHT22;32291;52.010;4.446;2023-11-21T04:57:18;9.20;99.90
47521;DHT22;32291;52.010;4.446;2023-11-21T04:58:25;9.20;99.90
47521;DHT22;32291;52.010;4.446;2023-11-21T04:59:32;9.20;99.90
47521;DHT22;32291;52.010;4.446;2023-11-21T05:00:39;9.20;99.90
47521;DHT22;32291;52.010;4.446;2023-11-21T05:01:45;9.20;99.90
47521;DHT22;32291;52.010;4.446;2023-11-21T05:02:52;9.20;99.90
47521;DHT22;32291;52.010;4.446;2023-11-21T05:03:59;9.10;99.90
47521;DHT22;32291;52.010;4.446;2023-11-21T05:05:01;9.20;99.90
47521;DHT22;32291;52.010;4.446;2023-11-21T05:06:12;9.10;99.90
47521;DHT22;32291;52.010;4.446;2023-11-21T05:07:14;9.10;99.90
47521;DHT22;32291;52.010;4.446;2023-11-21T05:08:22;9.10;99.90
47521;DHT22;32291;52.010;4.446;2023-11-21T05:09:29;9.10;99.90
47521;DHT22;32291;52.010;4.446;2023-11-21T05:10:38;9.00;99.90
47521;DHT22;32291;52.010;4.446;2023-11-21T05:11:46;9.00;99.90
47521;DHT22;32291;52.010;4.446;2023-11-21T05:12:53;8.90;99.90
47521;DHT22;32291;52.010;4.446;2023-11-21T05:13:55;8.90;99.90
47521;DHT22;32291;52.010;4.446;2023-11-21T05:15:06;8.80;99.90
47521;DHT22;32291;52.010;4.446;2023-11-21T05:16:17;8.70;99.90
47521;DHT22;32291;52.010;4.446;2023-11-21T05:17:25;8.80;99.90
47521;DHT22;32291;52.010;4.446;2023-11-21T05:18:31;8.60;99.90
47521;DHT22;32291;52.010;4.446;2023-11-21T05:19:38;8.60;99.90
47521;DHT22;32291;52.010;4.446;2023-11-21T05:20:46;8.50;99.90
47521;DHT22;32291;52.010;4.446;2023-11-21T05:21:53;8.50;99.90
47521;DHT22;32291;52.010;4.446;2023-11-21T05:23:00;8.50;99.90
47521;DHT22;32291;52.010;4.446;2023-11-21T05:24:07;8.50;99.90
47521;DHT22;32291;52.010;4.446;2023-11-21T05:25:14;8.40;99.90
47521;DHT22;32291;52.010;4.446;2023-11-21T05:26:18;8.40;99.90
47521;DHT22;32291;52.010;4.446;2023-11-21T05:27:25;8.40;99.90
47521;DHT22;32291;52.010;4.446;2023-11-21T05:28:32;8.50;99.90
47521;DHT22;32291;52.010;4.446;2023-11-21T05:29:38;8.60;99.90
47521;DHT22;32291;52.010;4.446;2023-11-21T05:30:46;8.40;99.90
47521;DHT22;32291;52.010;4.446;2023-11-21T05:31:52;8.40;99.90
47521;DHT22;32291;52.010;4.446;2023-11-21T05:32:59;8.40;99.90
47521;DHT22;32291;52.010;4.446;2023-11-21T05:34:06;8.30;99.90
47521;DHT22;32291;52.010;4.446;2023-11-21T05:35:13;8.30;99.90
47521;DHT22;32291;52.010;4.446;2023-11-21T05:36:22;8.30;99.90
47521;DHT22;32291;52.010;4.446;2023-11-21T05:37:29;8.30;99.90
47521;DHT22;32291;52.010;4.446;2023-11-21T05:38:31;8.20;99.90
47521;DHT22;32291;52.010;4.446;2023-11-21T05:39:33;8.20;99.90
47521;DHT22;32291;52.010;4.446;2023-11-21T05:40:35;8.20;99.90
47521;DHT22;32291;52.010;4.446;2023-11-21T05:41:43;8.20;99.90
47521;DHT22;32291;52.010;4.446;2023-11-21T05:42:51;8.20;99.90
47521;DHT22;32291;52.010;4.446;2023-11-21T05:43:58;8.20;99.90
47521;DHT22;32291;52.010;4.446;2023-11-21T05:45:05;8.20;99.90
47521;DHT22;32291;52.010;4.446;2023-11-21T05:46:18;8.20;99.90
47521;DHT22;32291;52.010;4.446;2023-11-21T05:47:25;8.20;99.90
47521;DHT22;32291;52.010;4.446;2023-11-21T05:48:33;8.30;99.90
47521;DHT22;32291;52.010;4.446;2023-11-21T05:49:39;8.30;99.90
47521;DHT22;32291;52.010;4.446;2023-11-21T05:50:41;8.30;99.90
47521;DHT22;32291;52.010;4.446;2023-11-21T05:51:48;8.30;99.90
47521;DHT22;32291;52.010;4.446;2023-11-21T05:52:55;8.50;99.90
47521;DHT22;32291;52.010;4.446;2023-11-21T05:54:02;8.40;99.90
47521;DHT22;32291;52.010;4.446;2023-11-21T05:55:09;8.40;99.90
47521;DHT22;32291;52.010;4.446;2023-11-21T05:56:11;8.40;99.90
47521;DHT22;32291;52.010;4.446;2023-11-21T05:57:19;8.50;99.90
47521;DHT22;32291;52.010;4.446;2023-11-21T05:58:22;8.50;99.90
47521;DHT22;32291;52.010;4.446;2023-11-21T05:59:30;8.60;99.90
47521;DHT22;32291;52.010;4.446;2023-11-21T06:00:37;8.60;99.90
47521;DHT22;32291;52.010;4.446;2023-11-21T06:01:39;8.70;99.90
47521;DHT22;32291;52.010;4.446;2023-11-21T06:02:46;8.70;99.90
47521;DHT22;32291;52.010;4.446;2023-11-21T06:03:56;8.80;99.90
47521;DHT22;32291;52.010;4.446;2023-11-21T06:05:04;8.80;99.90
47521;DHT22;32291;52.010;4.446;2023-11-21T06:06:12;8.80;99.90
47521;DHT22;32291;52.010;4.446;2023-11-21T06:07:14;8.90;99.90
47521;DHT22;32291;52.010;4.446;2023-11-21T06:08:21;9.00;99.90
47521;DHT22;32291;52.010;4.446;2023-11-21T06:09:23;9.00;99.90
47521;DHT22;32291;52.010;4.446;2023-11-21T06:10:31;9.00;99.90
47521;DHT22;32291;52.010;4.446;2023-11-21T06:11:38;9.00;99.90
47521;DHT22;32291;52.010;4.446;2023-11-21T06:12:45;9.00;99.90
47521;DHT22;32291;52.010;4.446;2023-11-21T06:13:52;9.00;99.90
47521;DHT22;32291;52.010;4.446;2023-11-21T06:14:54;9.10;99.90
47521;DHT22;32291;52.010;4.446;2023-11-21T06:15:57;9.10;99.90
47521;DHT22;32291;52.010;4.446;2023-11-21T06:17:04;9.10;99.90
47521;DHT22;32291;52.010;4.446;2023-11-21T06:18:06;9.10;99.90
47521;DHT22;32291;52.010;4.446;2023-11-21T06:19:11;9.20;99.90
47521;DHT22;32291;52.010;4.446;2023-11-21T06:20:19;9.10;99.90
47521;DHT22;32291;52.010;4.446;2023-11-21T06:21:22;9.20;99.90
47521;DHT22;32291;52.010;4.446;2023-11-21T06:22:29;9.20;99.90
47521;DHT22;32291;52.010;4.446;2023-11-21T06:23:37;9.10;99.90
47521;DHT22;32291;52.010;4.446;2023-11-21T06:24:44;9.20;99.90
47521;DHT22;32291;52.010;4.446;2023-11-21T06:25:51;9.20;99.90
47521;DHT22;32291;52.010;4.446;2023-11-21T06:26:58;9.20;99.90
47521;DHT22;32291;52.010;4.446;2023-11-21T06:28:05;9.10;99.90
47521;DHT22;32291;52.010;4.446;2023-11-21T06:29:11;9.10;99.90
47521;DHT22;32291;52.010;4.446;2023-11-21T06:30:14;9.00;99.90
47521;DHT22;32291;52.010;4.446;2023-11-21T06:31:21;9.00;99.90
47521;DHT22;32291;52.010;4.446;2023-11-21T06:32:29;8.90;99.90
47521;DHT22;32291;52.010;4.446;2023-11-21T06:33:32;8.80;99.90
47521;DHT22;32291;52.010;4.446;2023-11-21T06:34:34;8.80;99.90
47521;DHT22;32291;52.010;4.446;2023-11-21T06:35:41;8.70;99.90
47521;DHT22;32291;52.010;4.446;2023-11-21T06:36:47;8.70;99.90
47521;DHT22;32291;52.010;4.446;2023-11-21T06:37:54;8.60;99.90
47521;DHT22;32291;52.010;4.446;2023-11-21T06:38:56;8.60;99.90
47521;DHT22;32291;52.010;4.446;2023-11-21T06:40:09;8.50;99.90
47521;DHT22;32291;52.010;4.446;2023-11-21T06:41:11;8.50;99.90
47521;DHT22;32291;52.010;4.446;2023-11-21T06:42:21;8.60;99.90
47521;DHT22;32291;52.010;4.446;2023-11-21T06:43:28;8.40;99.90
47521;DHT22;32291;52.010;4.446;2023-11-21T06:44:35;8.30;99.90
47521;DHT22;32291;52.010;4.446;2023-11-21T06:45:43;8.40;99.90
47521;DHT22;32291;52.010;4.446;2023-11-21T06:46:45;8.30;99.90
47521;DHT22;32291;52.010;4.446;2023-11-21T06:47:52;8.20;99.90
47521;DHT22;32291;52.010;4.446;2023-11-21T06:48:59;8.20;99.90
47521;DHT22;32291;52.010;4.446;2023-11-21T06:50:06;8.20;99.90
47521;DHT22;32291;52.010;4.446;2023-11-21T06:51:14;8.20;99.90
47521;DHT22;32291;52.010;4.446;2023-11-21T06:52:21;8.10;99.90
47521;DHT22;32291;52.010;4.446;2023-11-21T06:53:28;8.10;99.90
47521;DHT22;32291;52.010;4.446;2023-11-21T06:54:35;8.10;99.90
47521;DHT22;32291;52.010;4.446;2023-11-21T06:55:43;8.00;99.90
47521;DHT22;32291;52.010;4.446;2023-11-21T06:56:50;8.10;99.90
47521;DHT22;32291;52.010;4.446;2023-11-21T06:57:57;8.00;99.90
47521;DHT22;32291;52.010;4.446;2023-11-21T06:58:59;8.00;99.90
47521;DHT22;32291;52.010;4.446;2023-11-21T07:00:07;8.00;99.90
47521;DHT22;32291;52.010;4.446;2023-11-21T07:01:13;8.00;99.90
47521;DHT22;32291;52.010;4.446;2023-11-21T07:02:20;8.00;99.90
47521;DHT22;32291;52.010;4.446;2023-11-21T07:03:22;8.00;99.90
47521;DHT22;32291;52.010;4.446;2023-11-21T07:04:25;8.00;99.90